Time;durP1;ratioP1;P1;durP2;ratioP2;P2;SDS_P1;SDS_P2;PMS_P1;PMS_P2;Temp;Humidity;BMP_temperature;BMP_pressure;BME280_temperature;BME280_humidity;BME280_pressure;Samples;Min_cycle;Max_cycle;Signal;HPM_P1;HPM_P2
2024/02/26 00:01:36;;;;;;;9.77;6.38;;;0.50;99.90;;;;;;5077600;28;20036;-54
2024/02/26 00:04:02;;;;;;;11.15;5.82;;;0.50;99.90;;;;;;5072009;28;20081;-55
2024/02/26 00:06:31;;;;;;;9.82;5.95;;;0.40;99.90;;;;;;5075431;28;20018;-54
2024/02/26 00:08:57;;;;;;;9.63;5.78;;;0.40;99.90;;;;;;5077186;28;20044;-53
2024/02/26 00:11:22;;;;;;;10.23;5.60;;;0.40;99.90;;;;;;5078204;28;20036;-53
2024/02/26 00:13:48;;;;;;;11.07;6.20;;;0.40;99.90;;;;;;5077595;28;20031;-54
2024/02/26 00:16:14;;;;;;;7.00;4.53;;;0.30;99.90;;;;;;5073676;28;20024;-52
2024/02/26 00:18:39;;;;;;;8.52;4.63;;;0.30;99.90;;;;;;5077977;28;20039;-53
2024/02/26 00:21:05;;;;;;;8.52;5.00;;;0.20;99.90;;;;;;5084197;28;20048;-53
2024/02/26 00:23:30;;;;;;;9.15;5.57;;;0.20;99.90;;;;;;5079376;28;20032;-55
2024/02/26 00:25:56;;;;;;;7.63;4.05;;;0.20;99.90;;;;;;5081496;28;20024;-54
2024/02/26 00:28:21;;;;;;;5.70;3.50;;;0.10;99.90;;;;;;5080791;28;20028;-54
2024/02/26 00:30:55;;;;;;;6.20;3.97;;;0.10;99.90;;;;;;5079803;28;20031;-56
2024/02/26 00:33:21;;;;;;;8.82;4.88;;;0.00;99.90;;;;;;5079739;28;20024;-56
2024/02/26 00:35:49;;;;;;;8.13;4.95;;;0.00;99.90;;;;;;5079917;28;20034;-56
2024/02/26 00:38:15;;;;;;;7.13;4.80;;;-0.10;99.90;;;;;;5072545;28;20028;-53
2024/02/26 00:40:40;;;;;;;8.45;5.75;;;-0.10;99.90;;;;;;5072510;28;20110;-56
2024/02/26 00:43:07;;;;;;;9.82;5.15;;;0.00;99.90;;;;;;5081233;28;20132;-51
2024/02/26 00:45:32;;;;;;;8.02;4.90;;;0.00;99.90;;;;;;5077501;28;20518;-55
2024/02/26 00:48:01;;;;;;;7.97;5.93;;;0.00;99.90;;;;;;5076984;28;20024;-56
2024/02/26 00:50:26;;;;;;;14.13;7.05;;;0.00;99.90;;;;;;5074612;28;20028;-53
2024/02/26 00:52:52;;;;;;;10.95;6.28;;;0.00;99.90;;;;;;5073566;28;20070;-51
2024/02/26 00:55:17;;;;;;;8.20;5.25;;;-0.10;99.90;;;;;;5071461;28;20446;-52
2024/02/26 00:57:43;;;;;;;9.30;5.40;;;-0.10;99.90;;;;;;5080742;28;20032;-49
2024/02/26 01:00:08;;;;;;;8.10;5.05;;;-0.10;99.90;;;;;;5076601;28;20027;-54
2024/02/26 01:02:34;;;;;;;6.47;4.80;;;-0.10;99.90;;;;;;5078526;28;20035;-52
2024/02/26 01:05:00;;;;;;;6.85;4.47;;;-0.20;99.90;;;;;;5078243;28;20032;-53
2024/02/26 01:07:25;;;;;;;7.18;5.00;;;-0.20;99.90;;;;;;5079060;28;20478;-54
2024/02/26 01:09:51;;;;;;;5.80;4.25;;;-0.20;99.90;;;;;;5078311;28;20040;-49
2024/02/26 01:12:16;;;;;;;6.50;4.63;;;-0.30;99.90;;;;;;5080284;28;20528;-50
2024/02/26 01:14:42;;;;;;;7.05;4.93;;;-0.30;99.90;;;;;;5079070;28;20069;-52
2024/02/26 01:17:07;;;;;;;7.47;4.85;;;-0.30;99.90;;;;;;5078040;28;20054;-53
2024/02/26 01:19:32;;;;;;;9.40;4.70;;;-0.30;99.90;;;;;;5073646;28;20040;-53
2024/02/26 01:21:58;;;;;;;8.07;4.63;;;-0.30;99.90;;;;;;5077401;28;20104;-53
2024/02/26 01:24:27;;;;;;;7.13;4.65;;;-0.30;99.90;;;;;;5080501;28;20085;-54
2024/02/26 01:26:52;;;;;;;5.72;4.03;;;-0.30;99.90;;;;;;5075217;28;20370;-54
2024/02/26 01:29:18;;;;;;;6.53;4.72;;;-0.30;99.90;;;;;;5075589;28;20049;-54
2024/02/26 01:31:43;;;;;;;8.07;4.70;;;-0.30;99.90;;;;;;5078375;28;20020;-53
2024/02/26 01:34:09;;;;;;;8.23;4.53;;;-0.30;99.90;;;;;;5078069;28;20036;-52
2024/02/26 01:36:34;;;;;;;7.45;5.30;;;-0.30;99.90;;;;;;5078381;28;20396;-52
2024/02/26 01:39:00;;;;;;;5.22;3.47;;;-0.30;99.90;;;;;;5071770;28;20030;-52
2024/02/26 01:41:25;;;;;;;5.75;3.80;;;-0.30;99.90;;;;;;5077250;28;20428;-51
2024/02/26 01:43:51;;;;;;;9.15;6.10;;;-0.30;99.90;;;;;;5075378;28;20040;-54
2024/02/26 01:46:17;;;;;;;6.30;4.10;;;-0.30;99.90;;;;;;5074750;28;20016;-52
2024/02/26 01:48:44;;;;;;;5.85;3.78;;;-0.20;99.90;;;;;;5075857;28;20028;-57
2024/02/26 01:51:12;;;;;;;5.35;3.78;;;-0.20;99.90;;;;;;5079123;28;20081;-53
2024/02/26 01:53:37;;;;;;;6.70;4.25;;;-0.20;99.90;;;;;;5078818;28;20107;-53
2024/02/26 01:56:03;;;;;;;4.97;3.67;;;-0.20;99.90;;;;;;5082304;28;20482;-53
2024/02/26 01:58:30;;;;;;;6.05;4.20;;;-0.20;99.90;;;;;;5076193;28;20054;-53
2024/02/26 02:00:56;;;;;;;8.20;4.60;;;-0.20;99.90;;;;;;5081454;28;20598;-54
2024/02/26 02:03:22;;;;;;;6.82;4.22;;;-0.20;99.90;;;;;;5076838;28;20024;-54
2024/02/26 02:05:50;;;;;;;8.23;4.10;;;-0.20;99.90;;;;;;5080608;28;20032;-54
2024/02/26 02:08:16;;;;;;;7.78;5.20;;;-0.10;99.90;;;;;;5080690;28;20447;-52
2024/02/26 02:10:42;;;;;;;5.20;3.42;;;-0.10;99.90;;;;;;5075077;28;20119;-54
2024/02/26 02:13:08;;;;;;;7.45;4.30;;;-0.10;99.90;;;;;;5077545;28;20028;-50
2024/02/26 02:15:33;;;;;;;5.63;3.88;;;-0.10;99.90;;;;;;5077665;28;20024;-51
2024/02/26 02:18:02;;;;;;;5.32;3.75;;;-0.10;99.90;;;;;;5079149;28;20032;-54
2024/02/26 02:20:34;;;;;;;5.07;3.50;;;-0.10;99.90;;;;;;5079169;28;20020;-54
2024/02/26 02:23:03;;;;;;;9.43;5.45;;;-0.10;99.90;;;;;;5079901;28;20031;-52
2024/02/26 02:25:28;;;;;;;5.40;3.78;;;-0.10;99.90;;;;;;5079609;28;20038;-54
2024/02/26 02:27:55;;;;;;;7.70;4.15;;;-0.10;99.90;;;;;;5079756;28;20452;-51
2024/02/26 02:30:26;;;;;;;6.45;3.42;;;-0.20;99.90;;;;;;5079750;28;20024;-51
2024/02/26 02:32:52;;;;;;;7.50;4.30;;;-0.20;99.90;;;;;;5059373;28;20032;-52
2024/02/26 02:35:17;;;;;;;5.00;3.40;;;-0.20;99.90;;;;;;5054693;28;20100;-52
2024/02/26 02:37:43;;;;;;;4.57;3.22;;;-0.20;99.90;;;;;;5057275;28;20034;-54
2024/02/26 02:40:08;;;;;;;9.07;5.07;;;-0.30;99.90;;;;;;5054997;28;20103;-53
2024/02/26 02:42:34;;;;;;;8.55;5.53;;;-0.20;99.90;;;;;;5056297;28;20036;-53
2024/02/26 02:45:03;;;;;;;7.22;4.70;;;-0.20;99.90;;;;;;5053811;28;20063;-51
2024/02/26 02:47:29;;;;;;;7.45;4.45;;;-0.20;99.90;;;;;;5054810;28;20397;-54
2024/02/26 02:49:55;;;;;;;6.25;3.95;;;-0.20;99.90;;;;;;5057400;28;20105;-54
2024/02/26 02:52:20;;;;;;;7.38;4.45;;;-0.20;99.90;;;;;;5055780;28;20036;-54
2024/02/26 02:54:46;;;;;;;5.80;3.85;;;-0.20;99.90;;;;;;5053005;28;20029;-54
2024/02/26 02:57:15;;;;;;;10.27;4.88;;;-0.20;99.90;;;;;;5053087;28;20528;-56
2024/02/26 02:59:41;;;;;;;5.60;4.32;;;-0.30;99.90;;;;;;5056133;28;23326;-56
2024/02/26 03:02:06;;;;;;;6.22;4.30;;;-0.30;99.90;;;;;;5059184;28;20017;-54
2024/02/26 03:04:32;;;;;;;7.47;5.53;;;-0.30;99.90;;;;;;5058972;28;20032;-52
2024/02/26 03:06:58;;;;;;;9.38;5.70;;;-0.30;99.90;;;;;;5058787;28;20036;-52
2024/02/26 03:09:23;;;;;;;9.52;5.35;;;-0.30;99.90;;;;;;5058996;28;20029;-52
2024/02/26 03:11:49;;;;;;;7.05;4.60;;;-0.30;99.90;;;;;;5060828;28;20025;-52
2024/02/26 03:14:14;;;;;;;9.70;5.60;;;-0.20;99.90;;;;;;5058823;28;20043;-53
2024/02/26 03:16:40;;;;;;;10.05;5.35;;;-0.20;99.90;;;;;;5059144;28;20063;-54
2024/02/26 03:19:05;;;;;;;9.00;5.28;;;-0.30;99.90;;;;;;5058824;28;20031;-54
2024/02/26 03:21:31;;;;;;;8.95;5.47;;;-0.30;99.90;;;;;;5054566;28;20038;-54
2024/02/26 03:23:57;;;;;;;7.70;4.97;;;-0.30;99.90;;;;;;5059238;28;20486;-51
2024/02/26 03:26:23;;;;;;;7.88;4.90;;;-0.40;99.90;;;;;;5060679;28;20103;-54
2024/02/26 03:28:48;;;;;;;8.18;5.00;;;-0.30;99.90;;;;;;5057573;28;20021;-49
2024/02/26 03:31:14;;;;;;;9.60;5.60;;;-0.30;99.90;;;;;;5057799;28;20021;-53
2024/02/26 03:33:40;;;;;;;12.43;6.35;;;-0.30;99.90;;;;;;5059062;28;20037;-52
2024/02/26 03:36:07;;;;;;;9.32;5.90;;;-0.30;99.90;;;;;;5058456;28;20648;-52
2024/02/26 03:38:33;;;;;;;9.43;5.78;;;-0.30;99.90;;;;;;5053164;28;20025;-52
2024/02/26 03:40:58;;;;;;;11.90;6.85;;;-0.30;99.90;;;;;;5060555;28;20029;-55
2024/02/26 03:43:24;;;;;;;7.65;6.38;;;-0.30;99.90;;;;;;5058685;28;20056;-55
2024/02/26 03:45:49;;;;;;;12.52;7.65;;;-0.20;99.90;;;;;;5057320;28;20487;-54
2024/02/26 03:48:15;;;;;;;14.82;8.75;;;-0.20;99.90;;;;;;5058618;28;20082;-53
2024/02/26 03:50:40;;;;;;;15.75;8.93;;;-0.20;99.90;;;;;;5055132;28;20033;-55
2024/02/26 03:53:08;;;;;;;17.30;8.20;;;-0.10;99.90;;;;;;5062836;28;20516;-56
2024/02/26 03:55:34;;;;;;;18.38;8.50;;;0.00;99.90;;;;;;5060916;28;20037;-53
2024/02/26 03:58:00;;;;;;;15.13;8.98;;;0.00;99.90;;;;;;5062426;28;20024;-54
2024/02/26 04:00:26;;;;;;;14.93;8.68;;;0.00;99.90;;;;;;5062217;28;20033;-55
2024/02/26 04:02:51;;;;;;;14.98;9.68;;;0.00;99.90;;;;;;5058490;28;20024;-56
2024/02/26 04:05:17;;;;;;;14.07;7.78;;;0.00;99.90;;;;;;5060651;28;20067;-56
2024/02/26 04:07:42;;;;;;;20.73;10.82;;;0.00;99.90;;;;;;5061988;28;20032;-55
2024/02/26 04:10:11;;;;;;;14.60;9.27;;;0.00;99.90;;;;;;5064198;28;20044;-55
2024/02/26 04:12:41;;;;;;;24.38;12.68;;;0.10;99.90;;;;;;5059895;28;20099;-54
2024/02/26 04:15:10;;;;;;;20.42;12.00;;;0.10;99.90;;;;;;5059960;28;20025;-52
2024/02/26 04:17:37;;;;;;;21.63;11.27;;;0.10;99.90;;;;;;5063699;28;20126;-56
2024/02/26 04:20:03;;;;;;;19.17;11.60;;;0.20;99.90;;;;;;5061724;28;20109;-55
2024/02/26 04:22:29;;;;;;;21.08;12.48;;;0.30;99.90;;;;;;5062133;28;20036;-53
2024/02/26 04:24:54;;;;;;;22.17;12.60;;;0.30;99.90;;;;;;5061658;28;20013;-55
2024/02/26 04:27:20;;;;;;;24.30;13.45;;;0.40;99.90;;;;;;5061087;28;20529;-54
2024/02/26 04:29:45;;;;;;;23.23;13.40;;;0.40;99.90;;;;;;5063139;28;20041;-52
2024/02/26 04:32:11;;;;;;;21.02;11.50;;;0.50;99.90;;;;;;5062085;28;20468;-52
2024/02/26 04:34:36;;;;;;;21.98;13.50;;;0.50;99.90;;;;;;5061512;28;20041;-54
2024/02/26 04:37:02;;;;;;;19.63;11.10;;;0.50;99.90;;;;;;5061702;28;20064;-54
2024/02/26 04:39:27;;;;;;;34.78;15.60;;;0.50;99.90;;;;;;5055749;28;20076;-55
2024/02/26 04:41:52;;;;;;;23.08;12.90;;;0.60;99.90;;;;;;5061487;28;20072;-54
2024/02/26 04:44:18;;;;;;;20.48;12.43;;;0.60;99.90;;;;;;5063627;28;20016;-54
2024/02/26 04:46:43;;;;;;;24.45;11.20;;;0.60;99.90;;;;;;5061489;28;20529;-56
2024/02/26 04:49:09;;;;;;;17.88;10.15;;;0.60;99.90;;;;;;5060129;28;20406;-56
2024/02/26 04:51:34;;;;;;;22.55;12.13;;;0.50;99.90;;;;;;5056577;28;20071;-54
2024/02/26 04:54:00;;;;;;;18.63;11.25;;;0.50;99.90;;;;;;5057270;28;20037;-60
2024/02/26 04:56:25;;;;;;;14.82;10.00;;;0.40;99.90;;;;;;5060679;28;20040;-50
2024/02/26 04:58:51;;;;;;;15.60;8.80;;;0.40;99.90;;;;;;5058159;28;20036;-50
2024/02/26 05:01:17;;;;;;;20.77;11.35;;;0.30;99.90;;;;;;5058802;28;20036;-49
2024/02/26 05:03:42;;;;;;;22.15;11.65;;;0.30;99.90;;;;;;5058814;28;20405;-48
2024/02/26 05:06:09;;;;;;;18.63;11.15;;;0.30;99.90;;;;;;5061733;28;20036;-51
2024/02/26 05:08:35;;;;;;;18.17;10.05;;;0.30;99.90;;;;;;5061055;28;20043;-51
2024/02/26 05:11:03;;;;;;;19.88;10.73;;;0.30;99.90;;;;;;5061159;28;20103;-46
2024/02/26 05:13:29;;;;;;;17.10;9.13;;;0.20;99.90;;;;;;5061278;28;20035;-49
2024/02/26 05:15:54;;;;;;;18.67;10.60;;;0.30;99.90;;;;;;5063374;28;20566;-50
2024/02/26 05:18:20;;;;;;;20.08;11.57;;;0.30;99.90;;;;;;5060948;28;20085;-52
2024/02/26 05:20:45;;;;;;;27.88;14.23;;;0.30;99.90;;;;;;5061111;28;20590;-48
2024/02/26 05:23:11;;;;;;;19.63;11.60;;;0.30;99.90;;;;;;5060754;28;20053;-49
2024/02/26 05:25:37;;;;;;;52.50;21.63;;;0.30;99.90;;;;;;5060957;28;20028;-52
2024/02/26 05:28:02;;;;;;;64.38;23.48;;;0.30;99.90;;;;;;5060964;28;20060;-50
2024/02/26 05:30:28;;;;;;;31.48;14.82;;;0.40;99.90;;;;;;5062956;28;20123;-49
2024/02/26 05:32:53;;;;;;;29.88;14.32;;;0.50;99.90;;;;;;5060722;28;20021;-50
2024/02/26 05:35:19;;;;;;;25.95;14.48;;;0.50;99.90;;;;;;5060581;28;20575;-50
2024/02/26 05:37:45;;;;;;;27.13;13.82;;;0.50;99.90;;;;;;5057326;28;20020;-52
2024/02/26 05:40:11;;;;;;;27.25;14.18;;;0.50;99.90;;;;;;5055758;28;20040;-55
2024/02/26 05:42:36;;;;;;;24.95;14.18;;;0.50;99.90;;;;;;5055140;28;20391;-50
2024/02/26 05:45:06;;;;;;;24.38;13.30;;;0.50;99.90;;;;;;5058531;28;20021;-50
2024/02/26 05:47:33;;;;;;;30.83;15.00;;;0.60;99.90;;;;;;5057858;28;20490;-48
2024/02/26 05:50:00;;;;;;;31.33;15.00;;;0.50;99.90;;;;;;5056020;28;20024;-49
2024/02/26 05:52:27;;;;;;;27.40;13.50;;;0.60;99.90;;;;;;5055995;28;20113;-52
2024/02/26 05:54:53;;;;;;;29.65;15.55;;;0.60;99.90;;;;;;5056301;28;20032;-49
2024/02/26 05:57:18;;;;;;;26.08;14.02;;;0.60;99.90;;;;;;5059139;28;20069;-51
2024/02/26 05:59:44;;;;;;;30.58;15.00;;;0.60;99.90;;;;;;5057923;28;20146;-52
2024/02/26 06:02:09;;;;;;;34.63;16.92;;;0.60;99.90;;;;;;5058411;28;20025;-52
2024/02/26 06:04:35;;;;;;;24.48;12.95;;;0.60;99.90;;;;;;5055919;28;20390;-52
2024/02/26 06:07:00;;;;;;;30.65;14.95;;;0.60;99.90;;;;;;5055999;28;20819;-48
2024/02/26 06:09:26;;;;;;;26.65;14.65;;;0.50;99.90;;;;;;5057349;28;20071;-50
2024/02/26 06:11:52;;;;;;;30.00;16.42;;;0.60;99.90;;;;;;5058283;28;20023;-51
2024/02/26 06:14:18;;;;;;;24.38;13.60;;;0.60;99.90;;;;;;5058093;28;20019;-53
2024/02/26 06:16:44;;;;;;;25.70;13.30;;;0.60;99.90;;;;;;5056729;28;20390;-48
2024/02/26 06:19:10;;;;;;;34.80;16.48;;;0.60;99.90;;;;;;5053079;28;20025;-50
2024/02/26 06:21:36;;;;;;;29.45;15.43;;;0.60;99.90;;;;;;5060450;28;20882;-49
2024/02/26 06:24:02;;;;;;;25.63;14.18;;;0.60;99.90;;;;;;5059160;28;20033;-52
2024/02/26 06:26:29;;;;;;;31.02;15.38;;;0.70;99.90;;;;;;5053927;28;20024;-48
2024/02/26 06:28:55;;;;;;;29.48;15.40;;;0.70;99.90;;;;;;5056185;28;20013;-50
2024/02/26 06:31:22;;;;;;;29.35;14.73;;;0.70;99.90;;;;;;5058613;28;20066;-52
2024/02/26 06:33:48;;;;;;;27.60;15.60;;;0.80;99.90;;;;;;5052148;28;20204;-52
2024/02/26 06:36:13;;;;;;;24.40;14.18;;;0.80;99.90;;;;;;5052892;28;20390;-50
2024/02/26 06:38:39;;;;;;;22.45;13.65;;;1.00;99.90;;;;;;5050551;28;20111;-49
2024/02/26 06:41:05;;;;;;;29.60;15.20;;;1.00;99.90;;;;;;5057505;28;20029;-53
2024/02/26 06:43:30;;;;;;;23.88;14.65;;;1.10;99.90;;;;;;5053128;28;20029;-53
2024/02/26 06:45:56;;;;;;;28.05;15.68;;;1.30;99.90;;;;;;5054522;28;20028;-49
2024/02/26 06:48:23;;;;;;;29.58;16.13;;;1.60;99.90;;;;;;5055786;28;20016;-50
2024/02/26 06:50:49;;;;;;;29.08;15.38;;;1.90;99.90;;;;;;5057359;28;20077;-50
2024/02/26 06:53:14;;;;;;;27.23;15.00;;;2.20;99.90;;;;;;5051904;28;20099;-50
2024/02/26 06:55:40;;;;;;;27.08;15.27;;;2.70;99.90;;;;;;5052946;28;20045;-49
2024/02/26 06:58:06;;;;;;;24.63;14.35;;;3.10;99.90;;;;;;5055133;28;20013;-49
2024/02/26 07:00:31;;;;;;;21.17;13.68;;;3.50;99.90;;;;;;5056652;28;20490;-53
2024/02/26 07:02:58;;;;;;;23.17;12.57;;;3.90;99.90;;;;;;5054796;28;20090;-51
2024/02/26 07:05:23;;;;;;;19.20;11.88;;;4.30;99.90;;;;;;5059228;28;20028;-50
2024/02/26 07:07:49;;;;;;;20.13;12.20;;;4.60;99.90;;;;;;5053808;28;20029;-52
2024/02/26 07:10:14;;;;;;;18.00;11.38;;;4.90;99.90;;;;;;5053565;28;20717;-49
2024/02/26 07:12:40;;;;;;;17.40;11.55;;;5.20;99.90;;;;;;5054512;28;20036;-50
2024/02/26 07:15:07;;;;;;;17.25;10.15;;;5.40;99.90;;;;;;5059124;28;20442;-52
2024/02/26 07:17:34;;;;;;;17.13;11.30;;;5.70;99.90;;;;;;5058660;28;20028;-49
2024/02/26 07:19:59;;;;;;;15.23;10.52;;;6.00;99.90;;;;;;5052633;28;20033;-53
2024/02/26 07:22:25;;;;;;;14.55;10.32;;;6.10;99.90;;;;;;5058915;28;20112;-53
2024/02/26 07:24:51;;;;;;;15.32;10.73;;;6.30;99.90;;;;;;5058076;28;20020;-54
2024/02/26 07:27:18;;;;;;;16.85;11.70;;;6.40;99.90;;;;;;5054452;28;20074;-49
2024/02/26 07:29:43;;;;;;;14.80;10.18;;;6.50;99.90;;;;;;5058498;28;20352;-52
2024/02/26 07:32:10;;;;;;;15.10;10.80;;;6.50;99.90;;;;;;5058521;28;20035;-47
2024/02/26 07:34:37;;;;;;;19.42;12.10;;;6.30;99.90;;;;;;5060864;28;20086;-49
2024/02/26 07:37:03;;;;;;;16.85;12.27;;;6.30;99.90;;;;;;5051312;28;20108;-52
2024/02/26 07:39:28;;;;;;;20.33;13.15;;;6.30;99.90;;;;;;5048008;28;20112;-49
2024/02/26 07:41:54;;;;;;;17.33;12.45;;;6.30;99.90;;;;;;5058498;28;20048;-46
2024/02/26 07:44:19;;;;;;;17.23;12.45;;;6.20;99.90;;;;;;5050600;28;20457;-48
2024/02/26 07:46:45;;;;;;;17.85;12.73;;;6.20;99.90;;;;;;5053203;28;20028;-52
2024/02/26 07:49:10;;;;;;;16.33;10.85;;;6.20;99.90;;;;;;5051338;28;20036;-48
2024/02/26 07:51:36;;;;;;;17.50;11.10;;;6.20;99.90;;;;;;5060329;28;20024;-53
2024/02/26 07:54:02;;;;;;;19.10;12.65;;;6.40;99.90;;;;;;5053580;28;20040;-50
2024/02/26 07:56:27;;;;;;;18.52;12.50;;;6.60;99.90;;;;;;5055984;28;20016;-51
2024/02/26 07:58:52;;;;;;;19.17;11.93;;;6.80;99.90;;;;;;5052580;28;20046;-49
2024/02/26 08:01:18;;;;;;;17.17;11.75;;;7.00;99.90;;;;;;5050339;28;20033;-53
2024/02/26 08:03:44;;;;;;;18.17;12.25;;;7.30;99.90;;;;;;5054060;28;20044;-50
2024/02/26 08:06:09;;;;;;;19.85;12.27;;;7.60;99.90;;;;;;5056266;28;20412;-52
2024/02/26 08:08:35;;;;;;;17.30;12.00;;;7.70;99.90;;;;;;5057694;28;20401;-50
2024/02/26 08:11:00;;;;;;;16.58;10.95;;;7.80;99.90;;;;;;5058142;28;20124;-46
2024/02/26 08:13:26;;;;;;;15.50;11.20;;;7.70;99.90;;;;;;5058136;28;20021;-48
2024/02/26 08:15:52;;;;;;;20.65;12.30;;;7.80;99.90;;;;;;5058320;28;20398;-48
2024/02/26 08:18:18;;;;;;;16.92;11.20;;;7.90;99.90;;;;;;5058346;28;20025;-51
2024/02/26 08:20:44;;;;;;;14.73;10.80;;;7.90;99.90;;;;;;5060088;28;20326;-47
2024/02/26 08:23:10;;;;;;;18.27;12.30;;;7.90;99.90;;;;;;5058176;28;20159;-46
2024/02/26 08:25:35;;;;;;;18.65;12.40;;;7.90;99.90;;;;;;5057612;28;20087;-49
2024/02/26 08:28:01;;;;;;;16.15;11.38;;;7.70;99.90;;;;;;5053522;28;20028;-50
2024/02/26 08:30:26;;;;;;;19.13;13.93;;;7.50;99.90;;;;;;5057733;28;20036;-46
2024/02/26 08:32:52;;;;;;;18.67;12.43;;;7.40;99.90;;;;;;5058141;28;20442;-48
2024/02/26 08:35:18;;;;;;;17.45;11.68;;;7.10;99.90;;;;;;5059856;28;20028;-47
2024/02/26 08:37:47;;;;;;;18.48;12.50;;;7.00;99.90;;;;;;5054950;28;20359;-51
2024/02/26 08:40:13;;;;;;;16.33;11.43;;;6.90;99.90;;;;;;5050143;28;20058;-47
2024/02/26 08:42:39;;;;;;;17.35;13.05;;;6.90;99.90;;;;;;5057298;28;20044;-52
2024/02/26 08:45:05;;;;;;;18.75;13.05;;;7.00;99.90;;;;;;5057304;28;20017;-51
2024/02/26 08:47:30;;;;;;;18.85;12.68;;;7.00;99.90;;;;;;5061543;28;20032;-52
2024/02/26 08:49:56;;;;;;;17.90;11.88;;;7.10;99.90;;;;;;5062109;28;20606;-48
2024/02/26 08:52:23;;;;;;;18.27;11.65;;;7.30;99.90;;;;;;5063403;28;20031;-51
2024/02/26 08:54:48;;;;;;;18.95;12.55;;;7.70;99.90;;;;;;5061416;28;20526;-49
2024/02/26 08:57:14;;;;;;;16.83;11.38;;;8.00;99.90;;;;;;5061429;28;20114;-47
2024/02/26 08:59:39;;;;;;;13.98;9.35;;;8.30;99.90;;;;;;5061415;28;20063;-46
2024/02/26 09:02:05;;;;;;;18.55;12.38;;;8.60;99.90;;;;;;5061281;28;20039;-48
2024/02/26 09:04:30;;;;;;;16.65;11.25;;;8.90;99.90;;;;;;5063038;28;20036;-48
2024/02/26 09:06:56;;;;;;;16.45;11.35;;;9.00;99.90;;;;;;5062862;28;20025;-47
2024/02/26 09:09:22;;;;;;;15.57;11.27;;;9.10;99.90;;;;;;5050566;28;20106;-48
2024/02/26 09:11:48;;;;;;;18.02;12.00;;;9.20;99.90;;;;;;5056695;28;20433;-48
2024/02/26 09:14:14;;;;;;;16.23;11.75;;;9.20;99.90;;;;;;5057001;28;20074;-51
2024/02/26 09:16:39;;;;;;;16.27;10.30;;;9.20;99.60;;;;;;5056753;28;20025;-48
2024/02/26 09:19:05;;;;;;;17.13;10.90;;;9.30;99.30;;;;;;5055090;28;20115;-48
2024/02/26 09:21:30;;;;;;;17.13;11.88;;;9.50;99.40;;;;;;5054113;28;20444;-48
2024/02/26 09:23:56;;;;;;;18.15;11.55;;;9.50;96.40;;;;;;5058514;28;20032;-47
2024/02/26 09:26:21;;;;;;;15.10;10.70;;;9.60;97.20;;;;;;5059231;28;20020;-48
2024/02/26 09:28:47;;;;;;;19.10;11.90;;;9.60;97.00;;;;;;5060450;28;20021;-50
2024/02/26 09:31:12;;;;;;;17.30;12.02;;;9.60;96.20;;;;;;5060759;28;20031;-50
2024/02/26 09:33:38;;;;;;;17.10;11.70;;;9.70;96.00;;;;;;5060770;28;20607;-50
2024/02/26 09:36:04;;;;;;;17.52;10.95;;;9.60;95.60;;;;;;5062801;28;20382;-46
2024/02/26 09:38:30;;;;;;;15.55;11.73;;;9.60;95.30;;;;;;5058502;28;20037;-47
2024/02/26 09:40:58;;;;;;;20.10;12.25;;;9.70;95.30;;;;;;5054623;28;20535;-50
2024/02/26 09:43:28;;;;;;;20.13;12.18;;;9.60;94.10;;;;;;5060311;28;20116;-47
2024/02/26 09:45:54;;;;;;;17.00;11.88;;;9.60;94.20;;;;;;5060416;28;20024;-51
2024/02/26 09:48:22;;;;;;;19.60;10.90;;;9.70;94.80;;;;;;5059933;28;20024;-49
2024/02/26 09:50:48;;;;;;;18.65;11.85;;;9.90;95.20;;;;;;5060637;28;20513;-46
2024/02/26 09:53:14;;;;;;;19.33;12.02;;;10.10;95.50;;;;;;5060049;28;20028;-47
2024/02/26 09:55:40;;;;;;;18.13;12.75;;;10.20;94.20;;;;;;5062420;28;20084;-46
2024/02/26 09:58:07;;;;;;;16.38;11.48;;;10.20;93.20;;;;;;5061784;28;20021;-48
2024/02/26 10:00:37;;;;;;;19.58;11.93;;;10.20;92.40;;;;;;5059905;28;20526;-51
2024/02/26 10:03:06;;;;;;;20.08;13.18;;;10.10;92.10;;;;;;5058224;28;20040;-48
2024/02/26 10:05:37;;;;;;;21.27;13.05;;;10.10;91.00;;;;;;5059859;28;20528;-46
2024/02/26 10:08:04;;;;;;;21.77;14.38;;;10.20;90.50;;;;;;5059679;28;20500;-52
2024/02/26 10:10:32;;;;;;;17.23;11.45;;;10.20;89.40;;;;;;5059521;28;20112;-50
2024/02/26 10:12:59;;;;;;;18.50;12.05;;;10.20;89.10;;;;;;5059956;28;20028;-50
2024/02/26 10:15:25;;;;;;;19.70;12.18;;;10.30;87.90;;;;;;5059828;28;20543;-50
2024/02/26 10:17:51;;;;;;;21.42;12.63;;;10.20;87.70;;;;;;5058646;28;20029;-50
2024/02/26 10:20:17;;;;;;;17.13;11.63;;;10.20;86.70;;;;;;5061606;28;20036;-50
2024/02/26 10:22:44;;;;;;;21.35;12.23;;;10.20;85.90;;;;;;5059068;28;20028;-49
2024/02/26 10:25:10;;;;;;;20.52;12.43;;;10.20;85.70;;;;;;5058805;28;20137;-51
2024/02/26 10:27:36;;;;;;;14.43;9.57;;;10.20;85.80;;;;;;5059192;28;20524;-53
2024/02/26 10:30:16;;;;;;;20.02;12.70;;;10.30;86.40;;;;;;5058931;28;20074;-48
2024/02/26 10:32:42;;;;;;;17.65;11.45;;;10.30;85.40;;;;;;5059100;28;20029;-47
2024/02/26 10:35:10;;;;;;;17.63;11.27;;;10.20;85.40;;;;;;5059369;28;20021;-53
2024/02/26 10:37:36;;;;;;;16.55;11.10;;;10.20;84.00;;;;;;5059209;28;20442;-49
2024/02/26 10:40:03;;;;;;;18.27;11.50;;;10.20;84.30;;;;;;5056079;28;20101;-50
2024/02/26 10:42:28;;;;;;;18.75;11.10;;;10.30;84.20;;;;;;5059124;28;20032;-49
2024/02/26 10:44:54;;;;;;;18.92;12.00;;;10.20;83.10;;;;;;5060699;28;20517;-49
2024/02/26 10:47:20;;;;;;;17.27;10.25;;;10.30;82.80;;;;;;5059000;28;20114;-51
2024/02/26 10:49:48;;;;;;;15.48;9.80;;;10.30;82.80;;;;;;5058773;28;20029;-50
2024/02/26 10:52:15;;;;;;;17.73;11.70;;;10.40;83.10;;;;;;5058860;28;20025;-48
2024/02/26 10:54:44;;;;;;;18.63;11.07;;;10.30;81.30;;;;;;5058956;28;20032;-47
2024/02/26 10:57:11;;;;;;;15.38;11.32;;;10.40;81.40;;;;;;5050148;28;20036;-50
2024/02/26 10:59:37;;;;;;;17.40;10.55;;;10.40;81.40;;;;;;5050218;28;20374;-60
2024/02/26 11:02:03;;;;;;;17.10;10.40;;;10.50;81.20;;;;;;5052358;28;20043;-56
2024/02/26 11:04:30;;;;;;;17.92;11.35;;;10.50;81.20;;;;;;5052755;28;20033;-57
2024/02/26 11:06:57;;;;;;;21.10;12.25;;;10.50;80.80;;;;;;5051399;28;20028;-57
2024/02/26 11:09:23;;;;;;;20.45;13.60;;;10.50;79.50;;;;;;5056031;28;20036;-57
2024/02/26 11:11:49;;;;;;;22.70;13.48;;;10.40;78.60;;;;;;5050347;28;20132;-58
2024/02/26 11:14:16;;;;;;;19.60;13.27;;;10.40;79.20;;;;;;5054534;28;20047;-57
2024/02/26 11:16:42;;;;;;;25.42;13.52;;;10.40;78.80;;;;;;5053677;28;20029;-56
2024/02/26 11:19:10;;;;;;;20.35;12.45;;;10.40;78.70;;;;;;5051200;28;20023;-57
2024/02/26 11:21:41;;;;;;;23.58;12.52;;;10.40;78.20;;;;;;5055321;28;20033;-58
2024/02/26 11:24:09;;;;;;;19.75;12.80;;;10.50;78.70;;;;;;5051104;28;20105;-55
2024/02/26 11:26:45;;;;;;;18.33;12.18;;;10.60;78.80;;;;;;5056598;28;20427;-58
2024/02/26 11:29:13;;;;;;;23.63;13.38;;;10.60;77.90;;;;;;5050497;28;20021;-58
2024/02/26 11:31:39;;;;;;;22.90;13.77;;;10.60;77.20;;;;;;5049773;28;20033;-57
2024/02/26 11:34:07;;;;;;;19.40;12.48;;;10.50;76.50;;;;;;5059117;28;20055;-57
2024/02/26 11:36:33;;;;;;;21.58;13.82;;;10.50;77.30;;;;;;5058386;28;20028;-57
2024/02/26 11:38:59;;;;;;;22.60;13.23;;;10.50;77.40;;;;;;5054741;28;20024;-56
2024/02/26 11:41:25;;;;;;;20.08;13.85;;;10.50;77.10;;;;;;5058379;28;20047;-57
2024/02/26 11:43:52;;;;;;;20.83;13.07;;;10.60;77.40;;;;;;5058169;28;20131;-57
2024/02/26 11:46:27;;;;;;;20.80;12.65;;;10.60;77.40;;;;;;5058200;28;20116;-56
2024/02/26 11:48:58;;;;;;;19.20;13.32;;;10.60;77.40;;;;;;5058677;28;20071;-53
2024/02/26 11:51:42;;;;;;;20.60;13.35;;;10.70;76.90;;;;;;5058092;28;20028;-56
2024/02/26 11:54:07;;;;;;;19.63;13.07;;;10.70;76.70;;;;;;5058415;28;20035;-54
2024/02/26 11:56:34;;;;;;;20.77;13.57;;;10.70;76.60;;;;;;5058376;28;20036;-54
2024/02/26 11:59:06;;;;;;;21.20;13.90;;;10.80;76.60;;;;;;5058204;28;20115;-56
2024/02/26 12:01:43;;;;;;;18.52;11.85;;;10.80;75.90;;;;;;5058051;28;20566;-57
2024/02/26 12:04:14;;;;;;;25.90;14.18;;;10.80;75.80;;;;;;5058618;28;20035;-56
2024/02/26 12:06:45;;;;;;;19.17;12.30;;;10.80;75.60;;;;;;5058598;28;20538;-57
2024/02/26 12:09:11;;;;;;;21.63;13.48;;;10.90;75.70;;;;;;5059253;28;20509;-56
2024/02/26 12:11:42;;;;;;;21.88;13.57;;;10.90;75.30;;;;;;5054881;28;20036;-56
2024/02/26 12:14:09;;;;;;;17.02;12.57;;;10.90;75.40;;;;;;5058222;28;20021;-55
2024/02/26 12:16:37;;;;;;;18.23;12.63;;;10.90;75.00;;;;;;5055806;28;20035;-57
2024/02/26 12:19:05;;;;;;;21.33;13.43;;;10.90;74.60;;;;;;5058710;28;20054;-57
2024/02/26 12:21:34;;;;;;;20.58;13.15;;;11.00;74.90;;;;;;5061391;28;20040;-56
2024/02/26 12:24:11;;;;;;;17.77;12.10;;;10.90;74.50;;;;;;5059689;28;20059;-57
2024/02/26 12:26:37;;;;;;;18.73;12.07;;;10.90;74.30;;;;;;5061955;28;20119;-56
2024/02/26 12:29:02;;;;;;;18.77;11.45;;;11.00;75.00;;;;;;5061623;28;20479;-55
2024/02/26 12:31:28;;;;;;;17.35;11.43;;;11.00;75.20;;;;;;5061624;28;20035;-58
2024/02/26 12:33:55;;;;;;;18.50;11.15;;;11.10;75.10;;;;;;5063863;28;20031;-59